Aérodrome :
LOGIN :

S'inscrire | Disclaimer

   EN    FR    IT 

 










Légende :    VFR   VFR Marginal   IFR   IFR Intensif   IFR Très Intensif
Visi : 
Plafond : 
>= 8 km
>= 3000ft
5 à 8 km
1000 à 3000 ft
1500m à 5 km
500 à 1000 ft
800 à 1500m
200 à 500 ft
< 800m
< 200 ft
Symboles :   Orages  Brouillard  Fortes neiges  Fortes précipitations  Vent > 20 kt
SIGMETs :   Divers  Orages  Givrage  Turbulence  Onde Orograph.  Cendres Volcan.







- Altitude de l'aérodrome : 640 ft
- Code IATA : AOC


EDAC - Altenburg-Nobitz

DERNIER METAR :
  • 241420Z 31007KT 9999 BKN042 OVC066 16/09 Q1020

METARs EXPIRÉS :
  • 241350Z 32007KT 290V350 9999 BKN034 BKN046 16/08 Q1020
  • 241320Z 29005KT 230V330 9999 SCT033 OVC073 16/08 Q1020
  • 241250Z 32005KT 260V010 9999 BKN033 15/08 Q1020
  • 241150Z 33008KT 9999 BKN038 15/07 Q1021
  • 241120Z 32008KT 290V360 9999 OVC036 15/07 Q1021

TAF TAF EDAC
Valide du 24 à 12h jusqu'au 24 à 21h UTC


241100Z 2412/2421 30010KT 9999 BKN030
BECMG 2418/2421 30005KT
Pas de NOTAMs connus pour ce terrain.



MET'MAP, la Météo Aéronautique d'un coup d'oeil ! - Copyright ORBIFLY Décembre 2007 - Disclaimer

ORBIFLY MET'MAP TEAM :

Programmation & Développement : Alexandra Zaïnal
Conception & Développement : Baudouin d'Aumeries
Co-Programmation & Développement : Marc-Olivier Méhu
Soutien technique & logistique : Manuel Goepfert

Contact : metmap@orbifly.com




SOURCES & CREDITS :

   NOAA